createdAt,value
2023-02-09T00:00:24.799Z,103285.83
2023-02-09T00:01:25.432Z,103285.39
2023-02-09T00:02:26.100Z,103284.52
2023-02-09T00:03:26.558Z,103283.58
2023-02-09T00:04:26.718Z,103282.75
2023-02-09T00:05:27.480Z,103282.15
2023-02-09T00:06:28.381Z,103281.05
2023-02-09T00:07:29.340Z,103279.83
2023-02-09T00:08:29.527Z,103278.52
2023-02-09T00:09:29.581Z,103278.13
2023-02-09T00:10:30.372Z,103277.19
2023-02-09T00:11:31.095Z,103275.60
2023-02-09T00:12:31.881Z,103274.77
2023-02-09T00:13:32.704Z,103273.67
2023-02-09T00:14:33.440Z,103273.07
2023-02-09T00:15:34.292Z,103272.17
2023-02-09T00:16:34.377Z,103271.41
2023-02-09T00:17:34.594Z,103269.81
2023-02-09T00:18:35.524Z,103269.16
2023-02-09T00:19:36.329Z,103268.23
2023-02-09T00:20:37.124Z,103267.22
2023-02-09T00:21:37.900Z,103266.41
2023-02-09T00:22:38.692Z,103265.80
2023-02-09T00:23:39.053Z,103264.88
2023-02-09T00:24:39.865Z,103264.03
2023-02-09T00:25:40.799Z,103263.50
2023-02-09T00:26:41.419Z,103262.67
2023-02-09T00:27:42.311Z,103262.16
2023-02-09T00:28:42.374Z,103261.33
2023-02-09T00:29:43.281Z,103260.40
2023-02-09T00:29:52.964Z,103275.30
2023-02-09T00:30:53.807Z,103255.11
2023-02-09T00:31:54.111Z,103254.45
2023-02-09T00:32:54.831Z,103254.28
2023-02-09T00:33:55.082Z,103253.53
2023-02-09T00:34:56.058Z,103252.64
2023-02-09T00:35:56.970Z,103251.92
2023-02-09T00:36:57.099Z,103251.36
2023-02-09T00:37:58.009Z,103250.77
2023-02-09T00:38:58.957Z,103250.48
2023-02-09T00:39:59.967Z,103250.61
2023-02-09T00:41:00.875Z,103249.94
2023-02-09T00:42:01.617Z,103249.56
2023-02-09T00:43:01.621Z,103249.28
2023-02-09T00:44:01.690Z,103248.73
2023-02-09T00:45:02.253Z,103248.45
2023-02-09T00:46:03.288Z,103247.91
2023-02-09T00:47:04.032Z,103248.13
2023-02-09T00:48:04.904Z,103247.69
2023-02-09T00:49:05.916Z,103247.75
2023-02-09T00:50:06.788Z,103247.24
2023-02-09T00:51:07.705Z,103246.63
2023-02-09T00:52:10.053Z,103247.08
2023-02-09T00:53:09.311Z,103246.58
2023-02-09T00:54:09.397Z,103245.77
2023-02-09T00:55:10.145Z,103244.92
2023-02-09T00:56:11.039Z,103244.88
2023-02-09T00:57:11.022Z,103244.87
2023-02-09T00:58:11.812Z,103244.00
2023-02-09T00:59:12.639Z,103244.43
2023-02-09T01:00:13.450Z,103244.43
2023-02-09T01:01:13.751Z,103243.71
2023-02-09T01:01:25.874Z,103259.19
2023-02-09T01:02:26.628Z,103239.09
2023-02-09T01:03:27.326Z,103238.77
2023-02-09T01:04:27.449Z,103238.60
2023-02-09T01:05:28.036Z,103238.60
2023-02-09T01:06:28.702Z,103238.61
2023-02-09T01:07:28.953Z,103238.38
2023-02-09T01:08:29.925Z,103238.55
2023-02-09T01:09:30.924Z,103238.66
2023-02-09T01:10:31.757Z,103238.27
2023-02-09T01:11:32.055Z,103237.83
2023-02-09T01:12:32.786Z,103237.45
2023-02-09T01:13:34.770Z,103236.78
2023-02-09T01:14:34.039Z,103236.45
2023-02-09T01:15:34.993Z,103235.36
2023-02-09T01:16:35.983Z,103234.97
2023-02-09T01:17:36.374Z,103234.47
2023-02-09T01:18:37.308Z,103233.65
2023-02-09T01:19:37.382Z,103232.89
2023-02-09T01:20:38.224Z,103232.45
2023-02-09T01:21:38.245Z,103232.61
2023-02-09T01:22:38.460Z,103231.67
2023-02-09T01:23:39.405Z,103231.33
2023-02-09T01:24:39.492Z,103230.72
2023-02-09T01:26:06.187Z,103235.52
2023-02-09T01:27:31.983Z,103239.13
2023-02-09T01:28:32.789Z,103221.58
2023-02-09T01:29:33.680Z,103221.58
2023-02-09T01:30:34.698Z,103221.32
2023-02-09T01:31:35.538Z,103221.20
2023-02-09T01:32:35.390Z,103220.71
2023-02-09T01:33:36.259Z,103220.17
2023-02-09T01:34:36.866Z,103220.31
2023-02-09T01:35:37.127Z,103220.10
2023-02-09T01:36:37.975Z,103220.55
2023-02-09T01:37:38.133Z,103220.44
2023-02-09T01:38:38.383Z,103220.82
2023-02-09T01:39:39.263Z,103220.83
2023-02-09T01:40:39.339Z,103220.61
2023-02-09T01:41:39.649Z,103220.88
2023-02-09T01:42:40.371Z,103220.65
2023-02-09T01:43:41.019Z,103220.55
2023-02-09T01:44:41.870Z,103220.88
2023-02-09T01:45:42.722Z,103221.55
2023-02-09T01:46:43.489Z,103221.38
2023-02-09T01:47:44.505Z,103221.47
2023-02-09T01:48:45.002Z,103221.80
2023-02-09T01:49:45.780Z,103221.27
2023-02-09T01:50:46.212Z,103221.59
2023-02-09T01:51:46.169Z,103222.03
2023-02-09T01:52:47.244Z,103222.76
2023-02-09T01:53:46.735Z,103223.09
2023-02-09T01:54:46.952Z,103222.91
2023-02-09T01:55:47.081Z,103223.24
2023-02-09T01:56:47.340Z,103222.73
2023-02-09T01:57:47.808Z,103221.70
2023-02-09T01:58:47.818Z,103221.36
2023-02-09T01:58:57.119Z,103223.45
2023-02-09T01:59:57.623Z,103204.09
2023-02-09T02:00:59.939Z,103203.98
2023-02-09T02:01:57.816Z,103204.64
2023-02-09T02:02:58.677Z,103204.03
2023-02-09T02:03:59.521Z,103203.65
2023-02-09T02:05:00.465Z,103203.92
2023-02-09T02:06:01.152Z,103203.38
2023-02-09T02:07:01.275Z,103202.93
2023-02-09T02:08:01.418Z,103202.72
2023-02-09T02:09:01.483Z,103202.05
2023-02-09T02:10:01.654Z,103201.78
2023-02-09T02:11:01.779Z,103201.95
2023-02-09T02:12:02.116Z,103201.94
2023-02-09T02:13:03.061Z,103201.72
2023-02-09T02:14:03.187Z,103201.83
2023-02-09T02:15:04.063Z,103202.09
2023-02-09T02:16:04.731Z,103202.31
2023-02-09T02:17:04.785Z,103202.70
2023-02-09T02:18:05.760Z,103203.30
2023-02-09T02:19:05.916Z,103203.48
2023-02-09T02:20:06.762Z,103203.70
2023-02-09T02:21:07.005Z,103203.57
2023-02-09T02:22:07.437Z,103203.41
2023-02-09T02:23:08.030Z,103203.52
2023-02-09T02:24:08.210Z,103204.06
2023-02-09T02:25:08.338Z,103204.83
2023-02-09T02:26:08.507Z,103205.50
2023-02-09T02:27:08.519Z,103206.48
2023-02-09T02:28:09.680Z,103207.08
2023-02-09T02:29:10.324Z,103207.29
2023-02-09T02:30:10.497Z,103207.45
2023-02-09T02:30:19.324Z,103222.32
2023-02-09T02:31:19.429Z,103207.68
2023-02-09T02:32:20.317Z,103207.58
2023-02-09T02:33:20.520Z,103207.56
2023-02-09T02:34:21.502Z,103207.30
2023-02-09T02:35:21.601Z,103207.52
2023-02-09T02:36:22.025Z,103207.28
2023-02-09T02:37:22.229Z,103206.69
2023-02-09T02:38:22.381Z,103206.52
2023-02-09T02:39:23.346Z,103206.19
2023-02-09T02:40:24.235Z,103205.70
2023-02-09T02:41:24.490Z,103205.30
2023-02-09T02:42:26.008Z,103205.31
2023-02-09T02:43:26.018Z,103204.83
2023-02-09T02:44:26.904Z,103204.77
2023-02-09T02:45:26.980Z,103204.49
2023-02-09T02:46:27.377Z,103204.59
2023-02-09T02:47:27.554Z,103204.38
2023-02-09T02:48:28.569Z,103204.28
2023-02-09T02:49:28.640Z,103203.77
2023-02-09T02:50:29.630Z,103204.00
2023-02-09T02:51:29.681Z,103204.15
2023-02-09T02:52:30.626Z,103203.55
2023-02-09T02:54:10.618Z,103211.31
2023-02-09T02:55:43.279Z,103209.13
2023-02-09T02:56:43.442Z,103198.89
2023-02-09T02:58:10.123Z,103215.33
2023-02-09T02:59:10.356Z,103200.76
2023-02-09T03:00:10.653Z,103201.34
2023-02-09T03:01:11.168Z,103201.34
2023-02-09T03:02:11.273Z,103201.67
2023-02-09T03:03:12.139Z,103202.34
2023-02-09T03:04:15.956Z,103202.58
2023-02-09T03:05:14.246Z,103202.84
2023-02-09T03:06:13.292Z,103203.71
2023-02-09T03:07:13.415Z,103203.72
2023-02-09T03:08:13.648Z,103203.11
2023-02-09T03:09:13.929Z,103202.89
2023-02-09T03:10:14.958Z,103202.58
2023-02-09T03:11:15.134Z,103202.84
2023-02-09T03:12:15.558Z,103203.12
2023-02-09T03:13:15.795Z,103203.45
2023-02-09T03:14:15.973Z,103203.94
2023-02-09T03:15:16.874Z,103204.00
2023-02-09T03:16:17.717Z,103203.84
2023-02-09T03:17:17.712Z,103203.94
2023-02-09T03:18:18.723Z,103203.52
2023-02-09T03:19:18.710Z,103202.70
2023-02-09T03:20:18.887Z,103202.36
2023-02-09T03:21:19.889Z,103201.38
2023-02-09T03:22:19.927Z,103200.55
2023-02-09T03:23:20.758Z,103200.31
2023-02-09T03:24:21.626Z,103200.11
2023-02-09T03:25:22.373Z,103199.50
2023-02-09T03:26:22.721Z,103199.33
2023-02-09T03:27:22.809Z,103198.56
2023-02-09T03:28:23.856Z,103198.23
2023-02-09T03:29:23.979Z,103197.52
2023-02-09T03:29:33.400Z,103206.39
2023-02-09T03:30:34.082Z,103197.03
2023-02-09T03:31:34.598Z,103196.77
2023-02-09T03:32:35.087Z,103196.59
2023-02-09T03:33:35.119Z,103196.27
2023-02-09T03:34:35.132Z,103196.20
2023-02-09T03:35:35.298Z,103196.59
2023-02-09T03:36:36.276Z,103197.36
2023-02-09T03:37:36.387Z,103197.63
2023-02-09T03:38:37.212Z,103197.63
2023-02-09T03:39:37.973Z,103197.80
2023-02-09T03:40:38.869Z,103197.80
2023-02-09T03:41:39.646Z,103197.69
2023-02-09T03:42:39.725Z,103197.69
2023-02-09T03:43:40.446Z,103197.86
2023-02-09T03:44:41.225Z,103198.24
2023-02-09T03:45:41.273Z,103198.67
2023-02-09T03:46:41.872Z,103198.63
2023-02-09T03:47:43.889Z,103199.17
2023-02-09T03:48:43.752Z,103199.00
2023-02-09T03:49:44.588Z,103199.55
2023-02-09T03:50:45.182Z,103199.55
2023-02-09T03:51:45.678Z,103199.50
2023-02-09T03:52:46.611Z,103199.22
2023-02-09T03:53:47.507Z,103198.66
2023-02-09T03:54:47.834Z,103198.48
2023-02-09T03:55:47.966Z,103198.27
2023-02-09T03:56:48.059Z,103197.72
2023-02-09T03:57:49.058Z,103197.33
2023-02-09T03:58:49.377Z,103197.20
2023-02-09T03:59:50.233Z,103196.72
2023-02-09T04:00:51.076Z,103196.88
2023-02-09T04:01:51.880Z,103196.27
2023-02-09T04:02:01.640Z,103200.95
2023-02-09T04:03:01.706Z,103189.88
2023-02-09T04:04:02.507Z,103189.78
2023-02-09T04:05:05.662Z,103189.67
2023-02-09T04:06:04.261Z,103189.67
2023-02-09T04:07:05.255Z,103190.00
2023-02-09T04:08:50.929Z,103209.27
2023-02-09T04:09:50.990Z,103195.72
2023-02-09T04:10:51.388Z,103195.78
2023-02-09T04:11:51.414Z,103195.34
2023-02-09T04:12:53.242Z,103195.34
2023-02-09T04:13:52.331Z,103195.02
2023-02-09T04:14:53.237Z,103194.95
2023-02-09T04:15:54.176Z,103195.23
2023-02-09T04:16:54.885Z,103195.23
2023-02-09T04:17:55.603Z,103195.89
2023-02-09T04:18:56.500Z,103196.22
2023-02-09T04:19:57.335Z,103196.88
2023-02-09T04:20:58.263Z,103196.83
2023-02-09T04:21:58.600Z,103197.58
2023-02-09T04:22:59.115Z,103197.27
2023-02-09T04:23:59.444Z,103197.48
2023-02-09T04:25:00.253Z,103197.69
2023-02-09T04:26:00.366Z,103198.34
2023-02-09T04:27:01.340Z,103198.73
2023-02-09T04:28:02.170Z,103198.95
2023-02-09T04:29:02.738Z,103198.78
2023-02-09T04:30:03.711Z,103198.78
2023-02-09T04:31:03.913Z,103198.73
2023-02-09T04:32:04.377Z,103198.94
2023-02-09T04:33:04.838Z,103199.22
2023-02-09T04:34:05.278Z,103199.70
2023-02-09T04:35:05.556Z,103199.70
2023-02-09T04:36:05.579Z,103199.98
2023-02-09T04:37:06.448Z,103199.81
2023-02-09T04:38:07.185Z,103200.45
2023-02-09T04:39:08.131Z,103201.05
2023-02-09T04:39:16.986Z,103225.67
2023-02-09T04:40:17.705Z,103205.92
2023-02-09T04:41:18.619Z,103206.25
2023-02-09T04:42:19.461Z,103206.09
2023-02-09T04:43:19.498Z,103206.36
2023-02-09T04:44:20.490Z,103206.30
2023-02-09T04:45:20.541Z,103207.03
2023-02-09T04:46:21.542Z,103207.20
2023-02-09T04:47:21.530Z,103207.96
2023-02-09T04:48:22.207Z,103208.12
2023-02-09T04:49:22.875Z,103208.55
2023-02-09T04:50:23.952Z,103208.89
2023-02-09T04:51:24.836Z,103208.34
2023-02-09T04:52:24.828Z,103208.61
2023-02-09T04:54:59.396Z,103223.69
2023-02-09T04:55:59.551Z,103202.91
2023-02-09T04:57:03.609Z,103203.12
2023-02-09T04:58:01.312Z,103203.84
2023-02-09T04:59:02.381Z,103204.16
2023-02-09T05:00:02.375Z,103205.03
2023-02-09T05:01:02.796Z,103205.59
2023-02-09T05:02:02.886Z,103206.34
2023-02-09T05:03:02.887Z,103206.63
2023-02-09T05:04:03.552Z,103208.03
2023-02-09T05:05:49.853Z,103235.93
2023-02-09T05:06:49.967Z,103223.20
2023-02-09T05:07:49.993Z,103222.82
2023-02-09T05:08:50.959Z,103223.10
2023-02-09T05:09:51.902Z,103222.82
2023-02-09T05:10:51.871Z,103222.16
2023-02-09T05:11:52.153Z,103222.82
2023-02-09T05:12:52.920Z,103222.77
2023-02-09T05:13:53.216Z,103222.33
2023-02-09T05:14:53.331Z,103223.05
2023-02-09T05:15:53.401Z,103223.52
2023-02-09T05:16:53.985Z,103223.08
2023-02-09T05:17:54.765Z,103223.47
2023-02-09T05:18:54.948Z,103223.45
2023-02-09T05:19:54.970Z,103223.63
2023-02-09T05:20:55.087Z,103223.57
2023-02-09T05:21:55.169Z,103223.28
2023-02-09T05:22:55.943Z,103223.27
2023-02-09T05:23:56.113Z,103223.33
2023-02-09T05:24:56.144Z,103223.32
2023-02-09T05:25:56.901Z,103222.88
2023-02-09T05:26:57.887Z,103222.50
2023-02-09T05:27:58.834Z,103222.33
2023-02-09T05:28:59.663Z,103221.89
2023-02-09T05:30:00.453Z,103221.22
2023-02-09T05:31:01.423Z,103221.67
2023-02-09T05:32:01.415Z,103222.05
2023-02-09T05:33:01.427Z,103221.82
2023-02-09T05:34:01.521Z,103221.20
2023-02-09T05:35:02.466Z,103220.86
2023-02-09T05:36:02.638Z,103220.09
2023-02-09T05:37:03.580Z,103219.61
2023-02-09T05:37:12.224Z,103220.81
2023-02-09T05:38:13.106Z,103204.47
2023-02-09T05:39:14.085Z,103204.64
2023-02-09T05:40:14.757Z,103204.12
2023-02-09T05:41:14.838Z,103204.35
2023-02-09T05:42:14.897Z,103204.17
2023-02-09T05:43:14.887Z,103204.23
2023-02-09T05:44:15.257Z,103204.30
2023-02-09T05:45:16.192Z,103204.45
2023-02-09T05:46:17.251Z,103204.12
2023-02-09T05:47:17.613Z,103203.84
2023-02-09T05:48:18.473Z,103203.73
2023-02-09T05:49:19.136Z,103203.23
2023-02-09T05:50:20.002Z,103203.13
2023-02-09T05:51:20.969Z,103203.07
2023-02-09T05:52:21.021Z,103202.58
2023-02-09T05:53:21.872Z,103202.80
2023-02-09T05:54:22.816Z,103203.02
2023-02-09T05:55:23.078Z,103202.34
2023-02-09T05:56:23.317Z,103202.47
2023-02-09T05:57:24.180Z,103202.19
2023-02-09T05:58:24.221Z,103202.00
2023-02-09T05:59:24.777Z,103201.47
2023-02-09T06:00:25.372Z,103200.95
2023-02-09T06:01:25.369Z,103200.69
2023-02-09T06:02:25.654Z,103200.51
2023-02-09T06:03:25.820Z,103199.97
2023-02-09T06:04:25.810Z,103200.20
2023-02-09T06:05:26.804Z,103199.69
2023-02-09T06:06:26.808Z,103198.66
2023-02-09T06:07:26.938Z,103198.58
2023-02-09T06:08:34.135Z,103198.47
2023-02-09T06:09:18.079Z,103209.20
2023-02-09T06:10:46.846Z,103199.54
2023-02-09T06:11:47.440Z,103192.80
2023-02-09T06:12:47.589Z,103192.48
2023-02-09T06:13:47.864Z,103191.88
2023-02-09T06:14:48.395Z,103191.27
2023-02-09T06:15:49.299Z,103190.67
2023-02-09T06:16:49.520Z,103190.45
2023-02-09T06:17:50.538Z,103190.34
2023-02-09T06:18:50.732Z,103190.13
2023-02-09T06:19:51.652Z,103189.52
2023-02-09T06:20:52.490Z,103189.63
2023-02-09T06:21:53.395Z,103189.80
2023-02-09T06:22:53.506Z,103189.52
2023-02-09T06:23:54.493Z,103189.24
2023-02-09T06:24:55.421Z,103189.73
2023-02-09T06:25:55.634Z,103190.11
2023-02-09T06:26:56.491Z,103191.25
2023-02-09T06:27:56.587Z,103191.30
2023-02-09T06:28:57.301Z,103191.08
2023-02-09T06:29:58.296Z,103191.30
2023-02-09T06:30:59.379Z,103191.56
2023-02-09T06:32:00.263Z,103191.95
2023-02-09T06:33:00.679Z,103192.94
2023-02-09T06:34:01.583Z,103193.92
2023-02-09T06:35:02.162Z,103195.57
2023-02-09T06:36:02.219Z,103196.89
2023-02-09T06:37:05.180Z,103197.77
2023-02-09T06:40:07.277Z,103224.61
2023-02-09T06:41:07.324Z,103208.22
2023-02-09T06:42:08.169Z,103208.44
2023-02-09T06:43:09.009Z,103208.00
2023-02-09T06:44:09.134Z,103208.59
2023-02-09T06:45:09.333Z,103208.98
2023-02-09T06:46:09.717Z,103209.47
2023-02-09T06:47:09.967Z,103209.96
2023-02-09T06:48:10.935Z,103209.86
2023-02-09T06:49:11.688Z,103209.91
2023-02-09T06:50:11.855Z,103210.57
2023-02-09T06:51:11.985Z,103210.66
2023-02-09T06:52:12.618Z,103211.33
2023-02-09T06:53:13.554Z,103211.66
2023-02-09T06:54:13.885Z,103211.66
2023-02-09T06:55:14.833Z,103211.73
2023-02-09T06:56:14.918Z,103211.81
2023-02-09T06:57:14.937Z,103211.98
2023-02-09T06:58:15.795Z,103211.73
2023-02-09T06:59:16.737Z,103211.23
2023-02-09T07:00:16.991Z,103210.68
2023-02-09T07:01:18.029Z,103210.63
2023-02-09T07:02:18.116Z,103209.80
2023-02-09T07:03:18.941Z,103209.59
2023-02-09T07:04:19.833Z,103209.57
2023-02-09T07:05:20.383Z,103208.53
2023-02-09T07:06:20.881Z,103207.38
2023-02-09T07:07:25.512Z,103206.98
2023-02-09T07:08:21.110Z,103206.73
2023-02-09T07:09:21.998Z,103206.01
2023-02-09T07:10:22.785Z,103206.39
2023-02-09T07:10:33.430Z,103216.27
2023-02-09T07:11:33.995Z,103210.52
2023-02-09T07:12:34.881Z,103210.52
2023-02-09T07:13:35.075Z,103210.12
2023-02-09T07:14:35.443Z,103209.52
2023-02-09T07:15:36.385Z,103209.02
2023-02-09T07:16:37.200Z,103209.02
2023-02-09T07:17:37.201Z,103209.20
2023-02-09T07:18:38.189Z,103209.09
2023-02-09T07:19:39.070Z,103208.93
2023-02-09T07:20:39.387Z,103208.98
2023-02-09T07:21:39.660Z,103208.22
2023-02-09T07:22:40.197Z,103207.78
2023-02-09T07:23:41.200Z,103207.67
2023-02-09T07:24:41.306Z,103207.50
2023-02-09T07:25:41.426Z,103207.16
2023-02-09T07:26:42.259Z,103206.94
2023-02-09T07:27:43.144Z,103207.16
2023-02-09T07:28:44.075Z,103207.26
2023-02-09T07:29:44.990Z,103207.59
2023-02-09T07:30:46.168Z,103207.81
2023-02-09T07:31:46.790Z,103208.14
2023-02-09T07:32:47.329Z,103208.80
2023-02-09T07:33:48.267Z,103208.42
2023-02-09T07:34:48.407Z,103209.02
2023-02-09T07:35:49.359Z,103209.45
2023-02-09T07:36:49.652Z,103209.29
2023-02-09T07:37:50.514Z,103209.73
2023-02-09T07:38:50.638Z,103209.97
2023-02-09T07:39:51.493Z,103210.73
2023-02-09T07:40:51.674Z,103211.44
2023-02-09T07:41:01.347Z,103235.25
2023-02-09T07:42:02.328Z,103228.56
2023-02-09T07:43:03.155Z,103228.07
2023-02-09T07:44:03.220Z,103228.45
2023-02-09T07:45:03.754Z,103228.30
2023-02-09T07:46:03.750Z,103228.75
2023-02-09T07:47:04.582Z,103228.90
2023-02-09T07:48:04.838Z,103229.19
2023-02-09T07:49:04.897Z,103229.57
2023-02-09T07:50:05.021Z,103229.80
2023-02-09T07:51:05.209Z,103229.59
2023-02-09T07:52:05.719Z,103229.87
2023-02-09T07:53:06.623Z,103229.61
2023-02-09T07:54:07.499Z,103229.56
2023-02-09T07:55:06.742Z,103229.72
2023-02-09T07:56:07.721Z,103229.67
2023-02-09T07:57:08.650Z,103229.47
2023-02-09T07:58:09.403Z,103229.03
2023-02-09T07:59:09.557Z,103228.60
2023-02-09T08:00:10.095Z,103228.72
2023-02-09T08:01:10.122Z,103228.11
2023-02-09T08:02:10.220Z,103227.41
2023-02-09T08:03:10.363Z,103226.53
2023-02-09T08:04:18.343Z,103225.99
2023-02-09T08:05:11.525Z,103225.56
2023-02-09T08:06:11.643Z,103225.45
2023-02-09T08:07:12.466Z,103224.52
2023-02-09T08:07:31.114Z,103223.50
2023-02-09T08:08:31.112Z,103222.34
2023-02-09T08:09:32.952Z,103221.58
2023-02-09T08:10:32.185Z,103220.00
2023-02-09T08:15:16.693Z,103223.20
2023-02-09T08:16:15.768Z,103219.97
2023-02-09T08:17:15.495Z,103219.92
2023-02-09T08:18:15.710Z,103219.55
2023-02-09T08:19:23.534Z,103218.98
2023-02-09T08:20:18.161Z,103218.92
2023-02-09T08:21:17.339Z,103218.19
2023-02-09T08:23:37.566Z,103230.42
2023-02-09T08:24:36.821Z,103220.18
2023-02-09T08:25:36.955Z,103219.69
2023-02-09T08:26:37.974Z,103220.28
2023-02-09T08:27:38.717Z,103220.88
2023-02-09T08:28:44.274Z,103221.81
2023-02-09T08:29:39.614Z,103222.47
2023-02-09T08:30:40.448Z,103223.36
2023-02-09T08:31:40.725Z,103223.84
2023-02-09T08:33:13.469Z,103248.38
2023-02-09T08:34:13.438Z,103239.87
2023-02-09T08:35:14.025Z,103239.45
2023-02-09T08:36:14.963Z,103239.66
2023-02-09T08:37:15.642Z,103239.13
2023-02-09T08:38:16.580Z,103239.08
2023-02-09T08:39:16.730Z,103238.86
2023-02-09T08:40:16.770Z,103238.47
2023-02-09T08:41:17.651Z,103237.82
2023-02-09T08:42:18.915Z,103237.77
2023-02-09T08:43:18.997Z,103237.44
2023-02-09T08:44:19.845Z,103237.38
2023-02-09T08:45:20.566Z,103237.50
2023-02-09T08:46:22.255Z,103237.06
2023-02-09T08:47:22.095Z,103236.52
2023-02-09T08:48:23.169Z,103236.31
2023-02-09T08:49:23.102Z,103235.81
2023-02-09T08:50:23.490Z,103235.70
2023-02-09T08:51:23.698Z,103235.45
2023-02-09T08:52:23.767Z,103235.23
2023-02-09T08:53:24.456Z,103235.45
2023-02-09T08:54:24.673Z,103235.69
2023-02-09T08:55:25.341Z,103236.34
2023-02-09T08:56:25.646Z,103237.00
2023-02-09T08:57:41.658Z,103237.22
2023-02-09T08:58:25.979Z,103237.91
2023-02-09T08:59:26.906Z,103238.06
2023-02-09T09:00:27.034Z,103238.46
2023-02-09T09:01:27.470Z,103238.50
2023-02-09T09:02:28.345Z,103238.77
2023-02-09T09:03:28.893Z,103239.72
2023-02-09T09:03:37.620Z,103250.19
2023-02-09T09:04:38.381Z,103239.11
2023-02-09T09:05:38.481Z,103239.28
2023-02-09T09:06:38.530Z,103238.62
2023-02-09T09:07:40.151Z,103237.73
2023-02-09T09:08:39.199Z,103237.25
2023-02-09T09:09:39.519Z,103237.20
2023-02-09T09:10:39.927Z,103236.42
2023-02-09T09:11:40.817Z,103236.92
2023-02-09T09:12:40.861Z,103235.98
2023-02-09T09:13:40.862Z,103235.19
2023-02-09T09:14:41.186Z,103234.80
2023-02-09T09:15:41.606Z,103234.38
2023-02-09T09:16:42.657Z,103234.10
2023-02-09T09:17:42.682Z,103233.50
2023-02-09T09:18:43.589Z,103233.29
2023-02-09T09:19:44.524Z,103233.17
2023-02-09T09:20:45.372Z,103233.18
2023-02-09T09:21:45.629Z,103232.73
2023-02-09T09:22:46.199Z,103233.67
2023-02-09T09:23:46.151Z,103233.95
2023-02-09T09:24:47.083Z,103233.73
2023-02-09T09:25:48.142Z,103234.13
2023-02-09T09:26:48.611Z,103234.30
2023-02-09T09:27:48.700Z,103234.47
2023-02-09T09:28:48.932Z,103234.14
2023-02-09T09:29:49.663Z,103233.65
2023-02-09T09:30:49.441Z,103233.66
2023-02-09T09:31:49.581Z,103233.34
2023-02-09T09:32:52.976Z,103232.95
2023-02-09T09:33:51.261Z,103232.84
2023-02-09T09:33:59.929Z,103235.37
2023-02-09T09:34:59.983Z,103241.84
2023-02-09T09:36:00.412Z,103240.91
2023-02-09T09:37:00.650Z,103240.86
2023-02-09T09:38:01.614Z,103240.20
2023-02-09T09:39:02.119Z,103239.05
2023-02-09T09:40:02.334Z,103238.45
2023-02-09T09:41:02.525Z,103237.41
2023-02-09T09:42:03.313Z,103236.70
2023-02-09T09:43:03.751Z,103235.85
2023-02-09T09:44:04.555Z,103235.14
2023-02-09T09:45:05.579Z,103234.45
2023-02-09T09:46:05.808Z,103234.05
2023-02-09T09:47:06.322Z,103232.40
2023-02-09T09:48:07.173Z,103231.25
2023-02-09T09:49:07.554Z,103230.83
2023-02-09T09:50:08.602Z,103229.87
2023-02-09T09:51:09.212Z,103229.73
2023-02-09T09:52:09.714Z,103229.84
2023-02-09T09:53:09.782Z,103229.67
2023-02-09T09:54:09.933Z,103230.34
2023-02-09T09:55:10.233Z,103230.67
2023-02-09T09:56:10.551Z,103230.55
2023-02-09T09:57:10.678Z,103230.55
2023-02-09T09:58:10.971Z,103231.16
2023-02-09T09:59:11.191Z,103231.00
2023-02-09T10:00:11.700Z,103231.17
2023-02-09T10:01:12.094Z,103230.57
2023-02-09T10:02:14.048Z,103230.41
2023-02-09T10:03:12.535Z,103229.52
2023-02-09T10:03:32.045Z,103221.33
2023-02-09T10:04:36.436Z,103221.10
2023-02-09T10:05:31.482Z,103221.27
2023-02-09T10:06:34.938Z,103221.50
2023-02-09T10:07:32.194Z,103222.25
2023-02-09T10:08:32.524Z,103222.92
2023-02-09T10:09:32.711Z,103224.34
2023-02-09T10:10:33.740Z,103225.17
2023-02-09T10:11:33.852Z,103226.44
2023-02-09T10:12:34.322Z,103227.44
2023-02-09T10:13:35.207Z,103228.54
2023-02-09T10:14:35.590Z,103229.38
2023-02-09T10:15:35.716Z,103230.69
2023-02-09T10:16:36.025Z,103231.94
2023-02-09T10:17:36.849Z,103232.88
2023-02-09T10:18:36.971Z,103234.20
2023-02-09T10:19:37.222Z,103235.24
2023-02-09T10:20:37.437Z,103236.19
2023-02-09T10:21:37.690Z,103236.89
2023-02-09T10:22:37.798Z,103238.00
2023-02-09T10:23:38.758Z,103239.44
2023-02-09T10:24:39.202Z,103240.95
2023-02-09T10:25:40.254Z,103242.66
2023-02-09T10:27:23.798Z,103282.17
2023-02-09T10:28:57.323Z,103278.02
2023-02-09T10:29:57.292Z,103261.02
2023-02-09T10:30:57.456Z,103260.13
2023-02-09T10:31:58.259Z,103259.47
2023-02-09T10:32:59.133Z,103258.95
2023-02-09T10:33:59.262Z,103257.91
2023-02-09T10:34:59.416Z,103256.72
2023-02-09T10:36:00.098Z,103255.64
2023-02-09T10:37:00.746Z,103254.58
2023-02-09T10:38:00.919Z,103253.64
2023-02-09T10:39:01.182Z,103252.83
2023-02-09T10:40:01.987Z,103251.59
2023-02-09T10:41:01.968Z,103251.40
2023-02-09T10:42:02.803Z,103251.66
2023-02-09T10:43:02.818Z,103252.09
2023-02-09T10:44:03.688Z,103252.50
2023-02-09T10:45:04.797Z,103252.45
2023-02-09T10:46:05.551Z,103253.11
2023-02-09T10:47:06.531Z,103253.99
2023-02-09T10:48:06.505Z,103254.75
2023-02-09T10:49:06.607Z,103256.67
2023-02-09T10:50:07.541Z,103258.16
2023-02-09T10:51:07.546Z,103259.37
2023-02-09T10:52:08.034Z,103260.44
2023-02-09T10:53:08.883Z,103262.03
2023-02-09T10:54:10.130Z,103262.97
2023-02-09T10:55:10.116Z,103264.17
2023-02-09T10:56:10.479Z,103265.30
2023-02-09T10:57:10.566Z,103267.36
2023-02-09T10:58:11.561Z,103268.97
2023-02-09T10:59:11.531Z,103270.91
2023-02-09T11:00:12.225Z,103272.34
2023-02-09T11:00:20.923Z,103309.17
2023-02-09T11:01:21.225Z,103302.27
2023-02-09T11:02:21.785Z,103301.37
2023-02-09T11:03:21.897Z,103300.93
2023-02-09T11:04:22.298Z,103299.69
2023-02-09T11:05:22.657Z,103299.53
2023-02-09T11:06:22.815Z,103298.73
2023-02-09T11:07:22.954Z,103298.59
2023-02-09T11:08:24.922Z,103298.06
2023-02-09T11:09:24.200Z,103297.60
2023-02-09T11:10:25.090Z,103297.23
2023-02-09T11:11:26.221Z,103296.81
2023-02-09T11:12:26.001Z,103296.81
2023-02-09T11:13:26.125Z,103296.45
2023-02-09T11:14:26.863Z,103295.78
2023-02-09T11:15:27.007Z,103296.02
2023-02-09T11:16:27.553Z,103295.42
2023-02-09T11:17:27.691Z,103294.89
2023-02-09T11:18:27.712Z,103293.84
2023-02-09T11:19:28.699Z,103293.55
2023-02-09T11:20:29.619Z,103293.11
2023-02-09T11:21:29.625Z,103292.35
2023-02-09T11:22:30.169Z,103291.69
2023-02-09T11:23:30.935Z,103291.16
2023-02-09T11:24:31.234Z,103290.80
2023-02-09T11:25:32.037Z,103290.44
2023-02-09T11:26:32.926Z,103289.73
2023-02-09T11:27:33.892Z,103288.58
2023-02-09T11:28:34.941Z,103286.94
2023-02-09T11:29:35.748Z,103286.20
2023-02-09T11:29:46.452Z,103290.53
2023-02-09T11:30:47.145Z,103273.79
2023-02-09T11:31:49.154Z,103273.77